^^
Station Historical Data
Daily Summary for March 12, 2017 Units:  Both    English   Metric
« Previous Day
Next Day »
Daily Weekly Monthly Yearly Custom
  High: Low: Average:
Temperature: 82.0 °F /  27.8 °C 54.1 °F /  12.3 °C 66.1 °F /  18.9 °C
Dew Point: 52.3 °F /  11.3 °C 42.1 °F /  5.6 °C 47.6 °F /  8.7 °C
Humidity: 85% 25% 55%
Wind Speed: 10.1mph /  16.3km/h - 1.6mph /  2.6km/h
Wind Gust: 12.0mph /  19.3km/h - -
Wind- - East
Pressure: 29.92 in /  1013.1 hPa 29.83 in /  1010 hPa -
Precipitation: 0.00 in /  0 mm    
Historical Graphs
 
 
Tabular Data for March 12, 2017
Time Temperature Dew Point Pressure Wind Wind Speed Wind Gust Humidity Rainfall Rate (Hourly) solar Conditions
00:03 60.3 °F /  15.7 °C 47.7 °F /  8.7 °C 29.87in /  1011.4hPa Calm   1.0mph /  1.6km/h 63% 0.00in /  0mm 0.0 W/m2
00:09 60.1 °F /  15.6 °C 47.5 °F /  8.6 °C 29.87in /  1011.4hPa Calm   1.0mph /  1.6km/h 63% 0.00in /  0mm 0.0 W/m2
00:15 59.7 °F /  15.4 °C 47.1 °F /  8.4 °C 29.87in /  1011.4hPa Calm   2.0mph /  3.2km/h 63% 0.00in /  0mm 0.0 W/m2
00:21 59.7 °F /  15.4 °C 47.1 °F /  8.4 °C 29.87in /  1011.4hPa ENE 2.0mph /  3.2km/h 2.0mph /  3.2km/h 63% 0.00in /  0mm 0.0 W/m2
00:27 59.5 °F /  15.3 °C 47.3 °F /  8.5 °C 29.87in /  1011.4hPa East 2.9mph /  4.7km/h 4.0mph /  6.4km/h 64% 0.00in /  0mm 0.0 W/m2
00:33 59.5 °F /  15.3 °C 47.3 °F /  8.5 °C 29.87in /  1011.4hPa Calm   2.0mph /  3.2km/h 64% 0.00in /  0mm 0.0 W/m2
00:39 59.4 °F /  15.2 °C 47.7 °F /  8.7 °C 29.86in /  1011.1hPa SE 0.9mph /  1.4km/h 4.0mph /  6.4km/h 65% 0.00in /  0mm 0.0 W/m2
00:45 59.2 °F /  15.1 °C 47.8 °F /  8.8 °C 29.86in /  1011.1hPa Calm   3.0mph /  4.8km/h 66% 0.00in /  0mm 0.0 W/m2
00:52 58.8 °F /  14.9 °C 47.5 °F /  8.6 °C 29.87in /  1011.4hPa Calm   4.0mph /  6.4km/h 66% 0.00in /  0mm 0.0 W/m2
00:58 58.6 °F /  14.8 °C 47.7 °F /  8.7 °C 29.87in /  1011.4hPa Calm   2.0mph /  3.2km/h 67% 0.00in /  0mm 0.0 W/m2
01:04 58.5 °F /  14.7 °C 47.5 °F /  8.6 °C 29.87in /  1011.4hPa ENE 0.9mph /  1.4km/h 3.0mph /  4.8km/h 67% 0.00in /  0mm 0.0 W/m2
01:10 58.3 °F /  14.6 °C 47.8 °F /  8.8 °C 29.87in /  1011.4hPa ENE 0.9mph /  1.4km/h 2.0mph /  3.2km/h 68% 0.00in /  0mm 0.0 W/m2
01:16 57.9 °F /  14.4 °C 47.8 °F /  8.8 °C 29.86in /  1011.1hPa Calm   1.0mph /  1.6km/h 69% 0.00in /  0mm 0.0 W/m2
01:22 57.9 °F /  14.4 °C 47.8 °F /  8.8 °C 29.86in /  1011.1hPa Calm     69% 0.00in /  0mm 0.0 W/m2
01:28 57.7 °F /  14.3 °C 47.7 °F /  8.7 °C 29.86in /  1011.1hPa Calm     69% 0.00in /  0mm 0.0 W/m2
01:35 57.7 °F /  14.3 °C 48.0 °F /  8.9 °C 29.86in /  1011.1hPa Calm     70% 0.00in /  0mm 0.0 W/m2
01:41 57.7 °F /  14.3 °C 48.0 °F /  8.9 °C 29.85in /  1010.7hPa Calm     70% 0.00in /  0mm 0.0 W/m2
01:47 57.7 °F /  14.3 °C 48.0 °F /  8.9 °C 29.85in /  1010.7hPa Calm     70% 0.00in /  0mm 0.0 W/m2
01:53 57.6 °F /  14.2 °C 48.2 °F /  9 °C 29.85in /  1010.7hPa Calm     71% 0.00in /  0mm 0.0 W/m2
01:59 57.6 °F /  14.2 °C 48.2 °F /  9 °C 29.85in /  1010.7hPa Calm     71% 0.00in /  0mm 0.0 W/m2
02:05 57.6 °F /  14.2 °C 48.2 °F /  9 °C 29.85in /  1010.7hPa Calm     71% 0.00in /  0mm 0.0 W/m2
02:11 57.4 °F /  14.1 °C 48.4 °F /  9.1 °C 29.85in /  1010.7hPa Calm     72% 0.00in /  0mm 0.0 W/m2
02:19 57.4 °F /  14.1 °C 48.4 °F /  9.1 °C 29.85in /  1010.7hPa Calm     72% 0.00in /  0mm 0.0 W/m2
02:26 57.4 °F /  14.1 °C 48.4 °F /  9.1 °C 29.85in /  1010.7hPa Calm     72% 0.00in /  0mm 0.0 W/m2
02:32 57.0 °F /  13.9 °C 48.4 °F /  9.1 °C 29.85in /  1010.7hPa Calm     73% 0.00in /  0mm 0.0 W/m2
02:38 57.0 °F /  13.9 °C 48.4 °F /  9.1 °C 29.85in /  1010.7hPa Calm     73% 0.00in /  0mm 0.0 W/m2
02:44 56.8 °F /  13.8 °C 48.6 °F /  9.2 °C 29.85in /  1010.7hPa Calm     74% 0.00in /  0mm 0.0 W/m2
02:50 56.7 °F /  13.7 °C 48.4 °F /  9.1 °C 29.85in /  1010.7hPa Calm     74% 0.00in /  0mm 0.0 W/m2
02:56 56.7 °F /  13.7 °C 48.7 °F /  9.3 °C 29.85in /  1010.7hPa Calm     75% 0.00in /  0mm 0.0 W/m2
03:02 56.7 °F /  13.7 °C 48.7 °F /  9.3 °C 29.85in /  1010.7hPa Calm     75% 0.00in /  0mm 0.0 W/m2
03:09 56.7 °F /  13.7 °C 48.7 °F /  9.3 °C 29.85in /  1010.7hPa Calm     75% 0.00in /  0mm 0.0 W/m2
03:15 56.5 °F /  13.6 °C 48.7 °F /  9.3 °C 29.85in /  1010.7hPa Calm   3.0mph /  4.8km/h 75% 0.00in /  0mm 0.0 W/m2
03:21 56.5 °F /  13.6 °C 48.7 °F /  9.3 °C 29.85in /  1010.7hPa Calm   3.0mph /  4.8km/h 75% 0.00in /  0mm 0.0 W/m2
03:27 56.5 °F /  13.6 °C 48.7 °F /  9.3 °C 29.85in /  1010.7hPa Calm   1.0mph /  1.6km/h 75% 0.00in /  0mm 0.0 W/m2
03:33 56.5 °F /  13.6 °C 48.7 °F /  9.3 °C 29.85in /  1010.7hPa Calm     75% 0.00in /  0mm 0.0 W/m2
03:39 56.3 °F /  13.5 °C 48.9 °F /  9.4 °C 29.85in /  1010.7hPa Calm   1.0mph /  1.6km/h 76% 0.00in /  0mm 0.0 W/m2
03:45 56.3 °F /  13.5 °C 48.9 °F /  9.4 °C 29.85in /  1010.7hPa Calm   1.0mph /  1.6km/h 76% 0.00in /  0mm 0.0 W/m2
03:52 56.1 °F /  13.4 °C 48.7 °F /  9.3 °C 29.85in /  1010.7hPa Calm   1.0mph /  1.6km/h 76% 0.00in /  0mm 0.0 W/m2
03:58 56.1 °F /  13.4 °C 48.7 °F /  9.3 °C 29.85in /  1010.7hPa Calm     76% 0.00in /  0mm 0.0 W/m2
04:04 55.9 °F /  13.3 °C 48.9 °F /  9.4 °C 29.85in /  1010.7hPa Calm   1.0mph /  1.6km/h 77% 0.00in /  0mm 0.0 W/m2
04:10 55.9 °F /  13.3 °C 48.9 °F /  9.4 °C 29.84in /  1010.4hPa Calm   1.0mph /  1.6km/h 77% 0.00in /  0mm 0.0 W/m2
04:16 55.8 °F /  13.2 °C 48.7 °F /  9.3 °C 29.85in /  1010.7hPa Calm   2.0mph /  3.2km/h 77% 0.00in /  0mm 0.0 W/m2
04:22 55.8 °F /  13.2 °C 48.9 °F /  9.4 °C 29.85in /  1010.7hPa Calm   1.0mph /  1.6km/h 78% 0.00in /  0mm 0.0 W/m2
04:28 55.6 °F /  13.1 °C 48.9 °F /  9.4 °C 29.85in /  1010.7hPa Calm   1.0mph /  1.6km/h 78% 0.00in /  0mm 0.0 W/m2
04:34 55.6 °F /  13.1 °C 48.9 °F /  9.4 °C 29.85in /  1010.7hPa Calm     78% 0.00in /  0mm 0.0 W/m2
04:40 55.4 °F /  13 °C 48.9 °F /  9.4 °C 29.85in /  1010.7hPa Calm     79% 0.00in /  0mm 0.0 W/m2
04:47 55.4 °F /  13 °C 48.9 °F /  9.4 °C 29.85in /  1010.7hPa Calm     79% 0.00in /  0mm 0.0 W/m2
04:53 55.2 °F /  12.9 °C 48.7 °F /  9.3 °C 29.85in /  1010.7hPa Calm   2.0mph /  3.2km/h 79% 0.00in /  0mm 0.0 W/m2
04:59 55.2 °F /  12.9 °C 48.7 °F /  9.3 °C 29.85in /  1010.7hPa Calm     79% 0.00in /  0mm 0.0 W/m2
05:05 55.2 °F /  12.9 °C 48.7 °F /  9.3 °C 29.85in /  1010.7hPa Calm     79% 0.00in /  0mm 0.0 W/m2
05:11 55.0 °F /  12.8 °C 48.6 °F /  9.2 °C 29.85in /  1010.7hPa Calm     79% 0.00in /  0mm 0.0 W/m2
05:19 54.9 °F /  12.7 °C 48.7 °F /  9.3 °C 29.85in /  1010.7hPa Calm     80% 0.00in /  0mm 0.0 W/m2
05:26 54.9 °F /  12.7 °C 48.7 °F /  9.3 °C 29.86in /  1011.1hPa Calm     80% 0.00in /  0mm 0.0 W/m2
05:32 54.7 °F /  12.6 °C 48.9 °F /  9.4 °C 29.86in /  1011.1hPa Calm     81% 0.00in /  0mm 0.0 W/m2
05:38 54.3 °F /  12.4 °C 48.6 °F /  9.2 °C 29.86in /  1011.1hPa Calm   1.0mph /  1.6km/h 81% 0.00in /  0mm 0.0 W/m2
05:44 54.3 °F /  12.4 °C 48.9 °F /  9.4 °C 29.86in /  1011.1hPa Calm     82% 0.00in /  0mm 0.0 W/m2
05:50 54.3 °F /  12.4 °C 48.9 °F /  9.4 °C 29.86in /  1011.1hPa Calm     82% 0.00in /  0mm 0.0 W/m2
05:56 54.3 °F /  12.4 °C 48.9 °F /  9.4 °C 29.86in /  1011.1hPa Calm   3.0mph /  4.8km/h 82% 0.00in /  0mm 0.0 W/m2
06:03 54.7 °F /  12.6 °C 49.3 °F /  9.6 °C 29.86in /  1011.1hPa Calm   3.0mph /  4.8km/h 82% 0.00in /  0mm 0.0 W/m2
06:09 55.0 °F /  12.8 °C 49.3 °F /  9.6 °C 29.86in /  1011.1hPa NE 0.9mph /  1.4km/h 4.0mph /  6.4km/h 81% 0.00in /  0mm 0.0 W/m2
06:15 55.4 °F /  13 °C 49.3 °F /  9.6 °C 29.86in /  1011.1hPa ENE 4.0mph /  6.4km/h 4.0mph /  6.4km/h 80% 0.00in /  0mm 0.0 W/m2
06:21 55.8 °F /  13.2 °C 49.3 °F /  9.6 °C 29.86in /  1011.1hPa East 4.9mph /  7.9km/h 7.0mph /  11.3km/h 79% 0.00in /  0mm 0.0 W/m2
06:27 56.3 °F /  13.5 °C 49.5 °F /  9.7 °C 29.86in /  1011.1hPa Calm   5.0mph /  8km/h 78% 0.00in /  0mm 0.0 W/m2
06:33 56.5 °F /  13.6 °C 49.3 °F /  9.6 °C 29.86in /  1011.1hPa Calm   1.0mph /  1.6km/h 77% 0.00in /  0mm 0.0 W/m2
06:39 56.1 °F /  13.4 °C 49.3 °F /  9.6 °C 29.87in /  1011.4hPa Calm   1.0mph /  1.6km/h 78% 0.00in /  0mm 0.0 W/m2
06:46 55.8 °F /  13.2 °C 48.9 °F /  9.4 °C 29.87in /  1011.4hPa Calm     78% 0.00in /  0mm 0.0 W/m2
06:52 55.6 °F /  13.1 °C 49.1 °F /  9.5 °C 29.87in /  1011.4hPa Calm     79% 0.00in /  0mm 0.0 W/m2
06:58 55.2 °F /  12.9 °C 49.1 °F /  9.5 °C 29.88in /  1011.7hPa Calm     80% 0.00in /  0mm 5.0 W/m2
07:04 54.9 °F /  12.7 °C 49.1 °F /  9.5 °C 29.87in /  1011.4hPa Calm     81% 0.00in /  0mm 7.0 W/m2
07:10 54.5 °F /  12.5 °C 49.1 °F /  9.5 °C 29.88in /  1011.7hPa Calm     82% 0.00in /  0mm 11.0 W/m2
07:16 54.3 °F /  12.4 °C 48.9 °F /  9.4 °C 29.88in /  1011.7hPa Calm   2.0mph /  3.2km/h 82% 0.00in /  0mm 12.0 W/m2
07:22 54.1 °F /  12.3 °C 49.1 °F /  9.5 °C 29.88in /  1011.7hPa Calm   1.0mph /  1.6km/h 83% 0.00in /  0mm 12.0 W/m2
07:28 54.1 °F /  12.3 °C 49.5 °F /  9.7 °C 29.88in /  1011.7hPa Calm   1.0mph /  1.6km/h 84% 0.00in /  0mm 14.0 W/m2
07:34 54.3 °F /  12.4 °C 49.6 °F /  9.8 °C 29.89in /  1012.1hPa Calm   1.0mph /  1.6km/h 84% 0.00in /  0mm 16.0 W/m2
07:41 54.5 °F /  12.5 °C 49.8 °F /  9.9 °C 29.89in /  1012.1hPa Calm   1.0mph /  1.6km/h 84% 0.00in /  0mm 18.0 W/m2
07:47 54.7 °F /  12.6 °C 50.2 °F /  10.1 °C 29.89in /  1012.1hPa Calm   1.0mph /  1.6km/h 85% 0.00in /  0mm 19.0 W/m2
07:53 55.0 °F /  12.8 °C 50.4 °F /  10.2 °C 29.89in /  1012.1hPa Calm   2.0mph /  3.2km/h 84% 0.00in /  0mm 21.0 W/m2
07:59 55.6 °F /  13.1 °C 50.5 °F /  10.3 °C 29.90in /  1012.4hPa Calm   1.0mph /  1.6km/h 83% 0.00in /  0mm 21.0 W/m2
08:05 56.1 °F /  13.4 °C 50.7 °F /  10.4 °C 29.90in /  1012.4hPa Calm   1.0mph /  1.6km/h 82% 0.00in /  0mm 23.0 W/m2
08:11 56.8 °F /  13.8 °C 51.1 °F /  10.6 °C 29.91in /  1012.8hPa Calm   1.0mph /  1.6km/h 81% 0.00in /  0mm 25.0 W/m2
08:17 57.4 °F /  14.1 °C 51.3 °F /  10.7 °C 29.91in /  1012.8hPa Calm     80% 0.00in /  0mm 25.0 W/m2
08:24 57.9 °F /  14.4 °C 51.4 °F /  10.8 °C 29.91in /  1012.8hPa NNE 2.9mph /  4.7km/h 3.0mph /  4.8km/h 79% 0.00in /  0mm 26.0 W/m2
08:30 58.6 °F /  14.8 °C 51.8 °F /  11 °C 29.91in /  1012.8hPa Calm   1.0mph /  1.6km/h 78% 0.00in /  0mm 26.0 W/m2
08:36 59.4 °F /  15.2 °C 51.8 °F /  11 °C 29.91in /  1012.8hPa Calm   2.0mph /  3.2km/h 76% 0.00in /  0mm 28.0 W/m2
08:42 60.3 °F /  15.7 °C 52.3 °F /  11.3 °C 29.91in /  1012.8hPa NE 2.0mph /  3.2km/h 4.0mph /  6.4km/h 75% 0.00in /  0mm 28.0 W/m2
08:48 61.0 °F /  16.1 °C 52.3 °F /  11.3 °C 29.92in /  1013.1hPa ENE 6.0mph /  9.7km/h 6.0mph /  9.7km/h 73% 0.00in /  0mm 30.0 W/m2
08:54 61.5 °F /  16.4 °C 52.0 °F /  11.1 °C 29.92in /  1013.1hPa Calm   3.0mph /  4.8km/h 71% 0.00in /  0mm 30.0 W/m2
09:00 62.2 °F /  16.8 °C 52.3 °F /  11.3 °C 29.92in /  1013.1hPa Calm   6.0mph /  9.7km/h 70% 0.00in /  0mm 32.0 W/m2
09:07 63.0 °F /  17.2 °C 52.2 °F /  11.2 °C 29.92in /  1013.1hPa ENE 4.0mph /  6.4km/h 5.0mph /  8km/h 68% 0.00in /  0mm 32.0 W/m2
09:13 63.7 °F /  17.6 °C 52.2 °F /  11.2 °C 29.91in /  1012.8hPa SSE 0.9mph /  1.4km/h 3.0mph /  4.8km/h 66% 0.00in /  0mm 32.0 W/m2
09:19 64.2 °F /  17.9 °C 50.9 °F /  10.5 °C 29.91in /  1012.8hPa NE 0.9mph /  1.4km/h 5.0mph /  8km/h 62% 0.00in /  0mm 35.0 W/m2
09:25 64.8 °F /  18.2 °C 51.4 °F /  10.8 °C 29.91in /  1012.8hPa NE 2.9mph /  4.7km/h 6.0mph /  9.7km/h 62% 0.00in /  0mm 35.0 W/m2
09:31 65.3 °F /  18.5 °C 51.1 °F /  10.6 °C 29.91in /  1012.8hPa NE 2.9mph /  4.7km/h 9.0mph /  14.5km/h 60% 0.00in /  0mm 42.0 W/m2
09:37 65.8 °F /  18.8 °C 49.6 °F /  9.8 °C 29.91in /  1012.8hPa ENE 2.9mph /  4.7km/h 7.0mph /  11.3km/h 56% 0.00in /  0mm 44.0 W/m2
09:43 66.4 °F /  19.1 °C 50.7 °F /  10.4 °C 29.91in /  1012.8hPa NNE 0.9mph /  1.4km/h 7.0mph /  11.3km/h 57% 0.00in /  0mm 53.0 W/m2
09:49 66.9 °F /  19.4 °C 50.7 °F /  10.4 °C 29.92in /  1013.1hPa ESE 2.9mph /  4.7km/h 6.0mph /  9.7km/h 56% 0.00in /  0mm 671.0 W/m2
09:56 67.6 °F /  19.8 °C 50.4 °F /  10.2 °C 29.92in /  1013.1hPa North 4.0mph /  6.4km/h 9.0mph /  14.5km/h 54% 0.00in /  0mm 694.0 W/m2
10:02 68.5 °F /  20.3 °C 50.2 °F /  10.1 °C 29.92in /  1013.1hPa NNE 6.0mph /  9.7km/h 9.0mph /  14.5km/h 52% 0.00in /  0mm 714.0 W/m2
10:08 69.4 °F /  20.8 °C 50.5 °F /  10.3 °C 29.92in /  1013.1hPa NE 4.9mph /  7.9km/h 8.0mph /  12.9km/h 51% 0.00in /  0mm 733.0 W/m2
10:14 70.2 °F /  21.2 °C 50.2 °F /  10.1 °C 29.92in /  1013.1hPa North 6.0mph /  9.7km/h 8.0mph /  12.9km/h 49% 0.00in /  0mm 749.0 W/m2
10:20 70.9 °F /  21.6 °C 50.2 °F /  10.1 °C 29.92in /  1013.1hPa SSW 0.9mph /  1.4km/h 5.0mph /  8km/h 48% 0.00in /  0mm 766.0 W/m2
10:26 71.6 °F /  22 °C 50.4 °F /  10.2 °C 29.92in /  1013.1hPa NE 0.9mph /  1.4km/h 7.0mph /  11.3km/h 47% 0.00in /  0mm 786.0 W/m2
10:32 72.1 °F /  22.3 °C 50.2 °F /  10.1 °C 29.92in /  1013.1hPa North 2.9mph /  4.7km/h 7.0mph /  11.3km/h 46% 0.00in /  0mm 803.0 W/m2
10:38 72.7 °F /  22.6 °C 49.5 °F /  9.7 °C 29.92in /  1013.1hPa NNE 6.9mph /  11.1km/h 10.0mph /  16.1km/h 44% 0.00in /  0mm 821.0 W/m2
10:45 72.7 °F /  22.6 °C 49.5 °F /  9.7 °C 29.92in /  1013.1hPa NE 2.9mph /  4.7km/h 7.0mph /  11.3km/h 44% 0.00in /  0mm 838.0 W/m2
10:51 73.0 °F /  22.8 °C 49.3 °F /  9.6 °C 29.91in /  1012.8hPa NE 4.9mph /  7.9km/h 8.0mph /  12.9km/h 43% 0.00in /  0mm 853.0 W/m2
10:57 73.2 °F /  22.9 °C 50.0 °F /  10 °C 29.91in /  1012.8hPa ENE 6.0mph /  9.7km/h 9.0mph /  14.5km/h 44% 0.00in /  0mm 865.0 W/m2
11:03 73.8 °F /  23.2 °C 51.1 °F /  10.6 °C 29.91in /  1012.8hPa SE 2.0mph /  3.2km/h 3.0mph /  4.8km/h 45% 0.00in /  0mm 877.0 W/m2
11:09 74.1 °F /  23.4 °C 50.2 °F /  10.1 °C 29.91in /  1012.8hPa NNE 2.0mph /  3.2km/h 7.0mph /  11.3km/h 43% 0.00in /  0mm 895.0 W/m2
11:15 74.3 °F /  23.5 °C 49.6 °F /  9.8 °C 29.91in /  1012.8hPa NE 4.0mph /  6.4km/h 5.0mph /  8km/h 42% 0.00in /  0mm 907.0 W/m2
11:21 74.7 °F /  23.7 °C 50.0 °F /  10 °C 29.91in /  1012.8hPa SE 0.9mph /  1.4km/h 6.0mph /  9.7km/h 42% 0.00in /  0mm 919.0 W/m2
11:28 75.0 °F /  23.9 °C 49.6 °F /  9.8 °C 29.91in /  1012.8hPa ESE 2.0mph /  3.2km/h 6.0mph /  9.7km/h 41% 0.00in /  0mm 921.0 W/m2
11:34 75.6 °F /  24.2 °C 50.9 °F /  10.5 °C 29.91in /  1012.8hPa SSE 6.0mph /  9.7km/h 9.0mph /  14.5km/h 42% 0.00in /  0mm 942.0 W/m2
11:40 75.7 °F /  24.3 °C 47.7 °F /  8.7 °C 29.91in /  1012.8hPa SSE 6.0mph /  9.7km/h 7.0mph /  11.3km/h 37% 0.00in /  0mm 946.0 W/m2
11:46 75.7 °F /  24.3 °C 46.2 °F /  7.9 °C 29.90in /  1012.4hPa SE 2.0mph /  3.2km/h 10.0mph /  16.1km/h 35% 0.00in /  0mm 960.0 W/m2
11:52 75.7 °F /  24.3 °C 46.9 °F /  8.3 °C 29.90in /  1012.4hPa SSE 2.0mph /  3.2km/h 9.0mph /  14.5km/h 36% 0.00in /  0mm 967.0 W/m2
11:54 75.9 °F /  24.4 °C 47.1 °F /  8.4 °C 29.91in /  1012.8hPa ENE 4.9mph /  7.9km/h 7.0mph /  11.3km/h 36% 0.00in /  0mm 969.0 W/m2
11:59 76.3 °F /  24.6 °C 46.6 °F /  8.1 °C 29.90in /  1012.4hPa ENE 2.9mph /  4.7km/h 9.0mph /  14.5km/h 35% 0.00in /  0mm 970.0 W/m2
12:06 76.6 °F /  24.8 °C 46.9 °F /  8.3 °C 29.90in /  1012.4hPa SE 4.9mph /  7.9km/h 9.0mph /  14.5km/h 35% 0.00in /  0mm 983.0 W/m2
12:12 76.6 °F /  24.8 °C 46.2 °F /  7.9 °C 29.90in /  1012.4hPa East 4.9mph /  7.9km/h 12.0mph /  19.3km/h 34% 0.00in /  0mm 988.0 W/m2
12:18 76.8 °F /  24.9 °C 47.1 °F /  8.4 °C 29.90in /  1012.4hPa ESE 6.9mph /  11.1km/h 7.0mph /  11.3km/h 35% 0.00in /  0mm 990.0 W/m2
12:25 77.2 °F /  25.1 °C 46.6 °F /  8.1 °C 29.90in /  1012.4hPa ESE 4.9mph /  7.9km/h 9.0mph /  14.5km/h 34% 0.00in /  0mm 995.0 W/m2
12:31 77.9 °F /  25.5 °C 48.0 °F /  8.9 °C 29.90in /  1012.4hPa Calm   8.0mph /  12.9km/h 35% 0.00in /  0mm 995.0 W/m2
12:37 78.3 °F /  25.7 °C 46.8 °F /  8.2 °C 29.89in /  1012.1hPa South 4.9mph /  7.9km/h 6.0mph /  9.7km/h 33% 0.00in /  0mm 995.0 W/m2
12:44 78.1 °F /  25.6 °C 46.6 °F /  8.1 °C 29.89in /  1012.1hPa SE 6.9mph /  11.1km/h 8.0mph /  12.9km/h 33% 0.00in /  0mm 998.0 W/m2
12:50 78.1 °F /  25.6 °C 47.5 °F /  8.6 °C 29.89in /  1012.1hPa SE 4.9mph /  7.9km/h 7.0mph /  11.3km/h 34% 0.00in /  0mm 1004.0 W/m2
12:55 77.7 °F /  25.4 °C 47.8 °F /  8.8 °C 29.89in /  1012.1hPa East 2.0mph /  3.2km/h 7.0mph /  11.3km/h 35% 0.00in /  0mm 1000.0 W/m2
13:01 78.1 °F /  25.6 °C 47.5 °F /  8.6 °C 29.88in /  1011.7hPa South 2.9mph /  4.7km/h 8.0mph /  12.9km/h 34% 0.00in /  0mm 1002.0 W/m2
13:08 78.4 °F /  25.8 °C 48.6 °F /  9.2 °C 29.88in /  1011.7hPa ESE 6.0mph /  9.7km/h 7.0mph /  11.3km/h 35% 0.00in /  0mm 1004.0 W/m2
13:14 78.8 °F /  26 °C 47.3 °F /  8.5 °C 29.88in /  1011.7hPa NE 2.0mph /  3.2km/h 7.0mph /  11.3km/h 33% 0.00in /  0mm 1005.0 W/m2
13:20 79.2 °F /  26.2 °C 45.9 °F /  7.7 °C 29.88in /  1011.7hPa East 4.9mph /  7.9km/h 7.0mph /  11.3km/h 31% 0.00in /  0mm 1002.0 W/m2
13:26 79.0 °F /  26.1 °C 45.0 °F /  7.2 °C 29.88in /  1011.7hPa ESE 4.9mph /  7.9km/h 10.0mph /  16.1km/h 30% 0.00in /  0mm 998.0 W/m2
13:32 79.2 °F /  26.2 °C 45.9 °F /  7.7 °C 29.88in /  1011.7hPa ENE 6.0mph /  9.7km/h 10.0mph /  16.1km/h 31% 0.00in /  0mm 993.0 W/m2
13:38 79.0 °F /  26.1 °C 46.6 °F /  8.1 °C 29.88in /  1011.7hPa SSE 4.0mph /  6.4km/h 11.0mph /  17.7km/h 32% 0.00in /  0mm 983.0 W/m2
13:44 79.0 °F /  26.1 °C 45.7 °F /  7.6 °C 29.87in /  1011.4hPa NNE 2.9mph /  4.7km/h 6.0mph /  9.7km/h 31% 0.00in /  0mm 979.0 W/m2
13:51 79.3 °F /  26.3 °C 46.0 °F /  7.8 °C 29.87in /  1011.4hPa NNE 8.1mph /  13km/h 9.0mph /  14.5km/h 31% 0.00in /  0mm 972.0 W/m2
13:57 79.5 °F /  26.4 °C 47.1 °F /  8.4 °C 29.87in /  1011.4hPa ENE 2.9mph /  4.7km/h 7.0mph /  11.3km/h 32% 0.00in /  0mm 965.0 W/m2
14:03 79.7 °F /  26.5 °C 46.4 °F /  8 °C 29.87in /  1011.4hPa Calm   12.0mph /  19.3km/h 31% 0.00in /  0mm 960.0 W/m2
14:09 80.2 °F /  26.8 °C 45.1 °F /  7.3 °C 29.86in /  1011.1hPa East 2.9mph /  4.7km/h 7.0mph /  11.3km/h 29% 0.00in /  0mm 947.0 W/m2
14:15 80.1 °F /  26.7 °C 45.9 °F /  7.7 °C 29.86in /  1011.1hPa SE 0.9mph /  1.4km/h 7.0mph /  11.3km/h 30% 0.00in /  0mm 942.0 W/m2
14:21 80.1 °F /  26.7 °C 45.0 °F /  7.2 °C 29.86in /  1011.1hPa NE 4.0mph /  6.4km/h 12.0mph /  19.3km/h 29% 0.00in /  0mm 930.0 W/m2
14:27 80.1 °F /  26.7 °C 45.9 °F /  7.7 °C 29.86in /  1011.1hPa ENE 2.9mph /  4.7km/h 7.0mph /  11.3km/h 30% 0.00in /  0mm 916.0 W/m2
14:33 80.1 °F /  26.7 °C 45.0 °F /  7.2 °C 29.86in /  1011.1hPa SW 2.0mph /  3.2km/h 3.0mph /  4.8km/h 29% 0.00in /  0mm 904.0 W/m2
14:40 79.7 °F /  26.5 °C 44.6 °F /  7 °C 29.86in /  1011.1hPa NE 2.0mph /  3.2km/h 12.0mph /  19.3km/h 29% 0.00in /  0mm 888.0 W/m2
14:46 80.1 °F /  26.7 °C 42.1 °F /  5.6 °C 29.86in /  1011.1hPa South 2.0mph /  3.2km/h 9.0mph /  14.5km/h 26% 0.00in /  0mm 881.0 W/m2
14:52 80.2 °F /  26.8 °C 43.2 °F /  6.2 °C 29.86in /  1011.1hPa SE 4.9mph /  7.9km/h 10.0mph /  16.1km/h 27% 0.00in /  0mm 870.0 W/m2
14:58 80.2 °F /  26.8 °C 43.2 °F /  6.2 °C 29.85in /  1010.7hPa ENE 2.9mph /  4.7km/h 5.0mph /  8km/h 27% 0.00in /  0mm 851.0 W/m2
15:04 80.4 °F /  26.9 °C 43.3 °F /  6.3 °C 29.85in /  1010.7hPa East 8.1mph /  13km/h 8.1mph /  13km/h 27% 0.00in /  0mm 844.0 W/m2
15:10 80.4 °F /  26.9 °C 43.3 °F /  6.3 °C 29.85in /  1010.7hPa NNE 2.0mph /  3.2km/h 9.0mph /  14.5km/h 27% 0.00in /  0mm 828.0 W/m2
15:16 80.8 °F /  27.1 °C 43.7 °F /  6.5 °C 29.85in /  1010.7hPa ESE 2.0mph /  3.2km/h 5.0mph /  8km/h 27% 0.00in /  0mm 809.0 W/m2
15:22 81.3 °F /  27.4 °C 45.1 °F /  7.3 °C 29.85in /  1010.7hPa ENE 2.0mph /  3.2km/h 9.0mph /  14.5km/h 28% 0.00in /  0mm 798.0 W/m2
15:29 81.9 °F /  27.7 °C 44.6 °F /  7 °C 29.85in /  1010.7hPa East 2.0mph /  3.2km/h 3.0mph /  4.8km/h 27% 0.00in /  0mm 777.0 W/m2
15:35 82.0 °F /  27.8 °C 44.8 °F /  7.1 °C 29.85in /  1010.7hPa ENE 4.9mph /  7.9km/h 7.0mph /  11.3km/h 27% 0.00in /  0mm 759.0 W/m2
15:41 81.7 °F /  27.6 °C 43.5 °F /  6.4 °C 29.85in /  1010.7hPa ESE 6.0mph /  9.7km/h 10.0mph /  16.1km/h 26% 0.00in /  0mm 740.0 W/m2
15:47 81.7 °F /  27.6 °C 42.4 °F /  5.8 °C 29.84in /  1010.4hPa East 4.0mph /  6.4km/h 8.0mph /  12.9km/h 25% 0.00in /  0mm 722.0 W/m2
15:53 81.7 °F /  27.6 °C 43.5 °F /  6.4 °C 29.85in /  1010.7hPa ESE 0.9mph /  1.4km/h 6.0mph /  9.7km/h 26% 0.00in /  0mm 707.0 W/m2
15:59 81.3 °F /  27.4 °C 44.1 °F /  6.7 °C 29.85in /  1010.7hPa SSE 2.0mph /  3.2km/h 8.0mph /  12.9km/h 27% 0.00in /  0mm 686.0 W/m2
16:05 81.5 °F /  27.5 °C 44.2 °F /  6.8 °C 29.85in /  1010.7hPa ESE 4.9mph /  7.9km/h 5.0mph /  8km/h 27% 0.00in /  0mm 663.0 W/m2
16:11 81.5 °F /  27.5 °C 42.3 °F /  5.7 °C 29.84in /  1010.4hPa NE 8.9mph /  14.3km/h 11.0mph /  17.7km/h 25% 0.00in /  0mm 645.0 W/m2
16:18 81.3 °F /  27.4 °C 43.2 °F /  6.2 °C 29.84in /  1010.4hPa ESE 6.0mph /  9.7km/h 9.0mph /  14.5km/h 26% 0.00in /  0mm 621.0 W/m2
16:24 81.5 °F /  27.5 °C 43.3 °F /  6.3 °C 29.84in /  1010.4hPa East 2.9mph /  4.7km/h 5.0mph /  8km/h 26% 0.00in /  0mm 599.0 W/m2
16:30 81.5 °F /  27.5 °C 43.3 °F /  6.3 °C 29.84in /  1010.4hPa ENE 2.9mph /  4.7km/h 7.0mph /  11.3km/h 26% 0.00in /  0mm 582.0 W/m2
16:36 81.7 °F /  27.6 °C 43.5 °F /  6.4 °C 29.83in /  1010hPa SE 4.9mph /  7.9km/h 10.0mph /  16.1km/h 26% 0.00in /  0mm 563.0 W/m2
16:42 81.3 °F /  27.4 °C 43.2 °F /  6.2 °C 29.83in /  1010hPa North 10.1mph /  16.3km/h 10.1mph /  16.3km/h 26% 0.00in /  0mm 534.0 W/m2
16:48 81.3 °F /  27.4 °C 43.2 °F /  6.2 °C 29.83in /  1010hPa Calm   6.0mph /  9.7km/h 26% 0.00in /  0mm 512.0 W/m2
19:33 74.1 °F /  23.4 °C 45.5 °F /  7.5 °C 29.85in /  1010.7hPa Calm   1.0mph /  1.6km/h 36% 0.00in /  0mm 0.0 W/m2
19:39 73.6 °F /  23.1 °C 45.0 °F /  7.2 °C 29.85in /  1010.7hPa ESE 0.9mph /  1.4km/h 4.0mph /  6.4km/h 36% 0.00in /  0mm 0.0 W/m2
19:45 72.9 °F /  22.7 °C 43.5 °F /  6.4 °C 29.85in /  1010.7hPa SE 2.0mph /  3.2km/h 5.0mph /  8km/h 35% 0.00in /  0mm 0.0 W/m2
19:51 72.5 °F /  22.5 °C 43.3 °F /  6.3 °C 29.85in /  1010.7hPa SE 0.9mph /  1.4km/h 4.0mph /  6.4km/h 35% 0.00in /  0mm 0.0 W/m2
19:57 72.1 °F /  22.3 °C 43.0 °F /  6.1 °C 29.86in /  1011.1hPa SE 2.9mph /  4.7km/h 5.0mph /  8km/h 35% 0.00in /  0mm 0.0 W/m2
19:59 72.0 °F /  22.2 °C 42.8 °F /  6 °C 29.86in /  1011.1hPa ESE 0.9mph /  1.4km/h 6.0mph /  9.7km/h 35% 0.00in /  0mm 0.0 W/m2
20:11 71.6 °F /  22 °C 43.2 °F /  6.2 °C 29.86in /  1011.1hPa ESE 0.9mph /  1.4km/h 6.0mph /  9.7km/h 36% 0.00in /  0mm 0.0 W/m2
20:17 71.4 °F /  21.9 °C 43.7 °F /  6.5 °C 29.86in /  1011.1hPa ESE 2.9mph /  4.7km/h 5.0mph /  8km/h 37% 0.00in /  0mm 0.0 W/m2
20:23 71.2 °F /  21.8 °C 43.7 °F /  6.5 °C 29.87in /  1011.4hPa ESE 4.0mph /  6.4km/h 5.0mph /  8km/h 37% 0.00in /  0mm 0.0 W/m2
20:29 70.9 °F /  21.6 °C 43.3 °F /  6.3 °C 29.87in /  1011.4hPa ESE 2.9mph /  4.7km/h 5.0mph /  8km/h 37% 0.00in /  0mm 0.0 W/m2
20:35 70.7 °F /  21.5 °C 43.9 °F /  6.6 °C 29.87in /  1011.4hPa Calm   3.0mph /  4.8km/h 38% 0.00in /  0mm 0.0 W/m2
20:41 70.3 °F /  21.3 °C 45.5 °F /  7.5 °C 29.87in /  1011.4hPa NNE 0.9mph /  1.4km/h 1.0mph /  1.6km/h 41% 0.00in /  0mm 0.0 W/m2
20:47 69.8 °F /  21 °C 45.7 °F /  7.6 °C 29.88in /  1011.7hPa Calm   1.0mph /  1.6km/h 42% 0.00in /  0mm 0.0 W/m2
20:53 69.3 °F /  20.7 °C 45.9 °F /  7.7 °C 29.88in /  1011.7hPa Calm   1.0mph /  1.6km/h 43% 0.00in /  0mm 0.0 W/m2
20:59 68.5 °F /  20.3 °C 46.4 °F /  8 °C 29.88in /  1011.7hPa Calm   1.0mph /  1.6km/h 45% 0.00in /  0mm 0.0 W/m2
21:05 68.0 °F /  20 °C 46.9 °F /  8.3 °C 29.88in /  1011.7hPa Calm   1.0mph /  1.6km/h 47% 0.00in /  0mm 0.0 W/m2
21:11 67.5 °F /  19.7 °C 46.6 °F /  8.1 °C 29.88in /  1011.7hPa ENE 0.9mph /  1.4km/h 2.0mph /  3.2km/h 47% 0.00in /  0mm 0.0 W/m2
21:17 67.3 °F /  19.6 °C 46.4 °F /  8 °C 29.89in /  1012.1hPa Calm   3.0mph /  4.8km/h 47% 0.00in /  0mm 0.0 W/m2
21:23 66.9 °F /  19.4 °C 46.6 °F /  8.1 °C 29.89in /  1012.1hPa Calm   3.0mph /  4.8km/h 48% 0.00in /  0mm 0.0 W/m2
21:29 66.6 °F /  19.2 °C 46.8 °F /  8.2 °C 29.89in /  1012.1hPa Calm   4.0mph /  6.4km/h 49% 0.00in /  0mm 0.0 W/m2
21:35 66.4 °F /  19.1 °C 47.1 °F /  8.4 °C 29.89in /  1012.1hPa NE 0.9mph /  1.4km/h 3.0mph /  4.8km/h 50% 0.00in /  0mm 0.0 W/m2
21:41 66.0 °F /  18.9 °C 46.8 °F /  8.2 °C 29.89in /  1012.1hPa Calm   1.0mph /  1.6km/h 50% 0.00in /  0mm 0.0 W/m2
21:47 65.8 °F /  18.8 °C 46.8 °F /  8.2 °C 29.90in /  1012.4hPa Calm   2.0mph /  3.2km/h 50% 0.00in /  0mm 0.0 W/m2
21:53 65.7 °F /  18.7 °C 47.1 °F /  8.4 °C 29.90in /  1012.4hPa Calm   1.0mph /  1.6km/h 51% 0.00in /  0mm 0.0 W/m2
21:59 65.5 °F /  18.6 °C 47.5 °F /  8.6 °C 29.90in /  1012.4hPa Calm   4.0mph /  6.4km/h 52% 0.00in /  0mm 0.0 W/m2
22:05 65.1 °F /  18.4 °C 47.1 °F /  8.4 °C 29.90in /  1012.4hPa Calm   3.0mph /  4.8km/h 52% 0.00in /  0mm 0.0 W/m2
22:11 64.8 °F /  18.2 °C 46.8 °F /  8.2 °C 29.91in /  1012.8hPa ESE 0.9mph /  1.4km/h 2.0mph /  3.2km/h 52% 0.00in /  0mm 0.0 W/m2
22:17 64.8 °F /  18.2 °C 47.3 °F /  8.5 °C 29.91in /  1012.8hPa East 2.0mph /  3.2km/h 2.0mph /  3.2km/h 53% 0.00in /  0mm 0.0 W/m2
22:23 64.6 °F /  18.1 °C 47.1 °F /  8.4 °C 29.91in /  1012.8hPa Calm   2.0mph /  3.2km/h 53% 0.00in /  0mm 0.0 W/m2
22:29 64.2 °F /  17.9 °C 46.8 °F /  8.2 °C 29.91in /  1012.8hPa Calm   1.0mph /  1.6km/h 53% 0.00in /  0mm 0.0 W/m2
22:35 64.2 °F /  17.9 °C 47.3 °F /  8.5 °C 29.91in /  1012.8hPa Calm   2.0mph /  3.2km/h 54% 0.00in /  0mm 0.0 W/m2
22:42 64.0 °F /  17.8 °C 47.1 °F /  8.4 °C 29.91in /  1012.8hPa NE 2.0mph /  3.2km/h 3.0mph /  4.8km/h 54% 0.00in /  0mm 0.0 W/m2
22:48 63.9 °F /  17.7 °C 46.9 °F /  8.3 °C 29.91in /  1012.8hPa Calm   1.0mph /  1.6km/h 54% 0.00in /  0mm 0.0 W/m2
22:54 63.9 °F /  17.7 °C 47.3 °F /  8.5 °C 29.92in /  1013.1hPa Calm   3.0mph /  4.8km/h 55% 0.00in /  0mm 0.0 W/m2
23:00 63.7 °F /  17.6 °C 47.7 °F /  8.7 °C 29.92in /  1013.1hPa Calm   1.0mph /  1.6km/h 56% 0.00in /  0mm 0.0 W/m2
23:06 63.5 °F /  17.5 °C 47.5 °F /  8.6 °C 29.92in /  1013.1hPa Calm   2.0mph /  3.2km/h 56% 0.00in /  0mm 0.0 W/m2
23:12 63.3 °F /  17.4 °C 47.3 °F /  8.5 °C 29.92in /  1013.1hPa Calm   3.0mph /  4.8km/h 56% 0.00in /  0mm 0.0 W/m2
23:18 63.3 °F /  17.4 °C 47.3 °F /  8.5 °C 29.92in /  1013.1hPa NE 0.9mph /  1.4km/h 3.0mph /  4.8km/h 56% 0.00in /  0mm 0.0 W/m2
23:24 63.3 °F /  17.4 °C 47.3 °F /  8.5 °C 29.91in /  1012.8hPa Calm   1.0mph /  1.6km/h 56% 0.00in /  0mm 0.0 W/m2
23:30 63.3 °F /  17.4 °C 47.8 °F /  8.8 °C 29.92in /  1013.1hPa ENE 2.0mph /  3.2km/h 4.0mph /  6.4km/h 57% 0.00in /  0mm 0.0 W/m2
23:36 63.1 °F /  17.3 °C 47.7 °F /  8.7 °C 29.92in /  1013.1hPa East 0.9mph /  1.4km/h 3.0mph /  4.8km/h 57% 0.00in /  0mm 0.0 W/m2
23:42 63.1 °F /  17.3 °C 47.7 °F /  8.7 °C 29.92in /  1013.1hPa ENE 0.9mph /  1.4km/h 3.0mph /  4.8km/h 57% 0.00in /  0mm 0.0 W/m2
23:48 63.0 °F /  17.2 °C 48.0 °F /  8.9 °C 29.92in /  1013.1hPa Calm   3.0mph /  4.8km/h 58% 0.00in /  0mm 0.0 W/m2
23:55 63.0 °F /  17.2 °C 48.0 °F /  8.9 °C 29.92in /  1013.1hPa Calm   3.0mph /  4.8km/h 58% 0.00in /  0mm 0.0 W/m2
Olympia, Windhoek, Namibia
Compliments of Weather Underground - 3 mb